Time,TemperatureF,DewpointF,PressureIn,WindDirection,WindDirectionDegrees,WindSpeedMPH,WindSpeedGustMPH,Humidity,HourlyPrecipIn,Conditions,Clouds,dailyrainin,SolarRadiationWatts/m^2,SoftwareType,DateUTC
2013-02-26 00:21:00,22.0,20.0,-100.00,SE,136,1.0,3.0,90,0.00,,,0.05,0.000000,,2013-02-26 09:21:00,
2013-02-26 00:31:00,22.0,20.0,-100.00,SE,136,1.0,3.0,90,0.00,,,0.05,0.000000,,2013-02-26 09:31:00,
2013-02-26 00:43:00,22.0,20.0,-100.00,SE,136,1.0,3.0,90,0.00,,,0.05,0.000000,,2013-02-26 09:43:00,
2013-02-26 00:51:00,22.0,20.0,-100.00,SE,136,1.0,3.0,90,0.00,,,0.05,0.000000,,2013-02-26 09:51:00,
2013-02-26 01:21:00,21.0,19.0,-100.00,East,98,1.0,4.0,91,0.00,,,0.05,0.000000,,2013-02-26 10:21:00,
2013-02-26 01:41:00,21.0,19.0,-100.00,East,98,1.0,4.0,91,0.00,,,0.05,0.000000,,2013-02-26 10:41:00,
2013-02-26 01:51:00,21.0,19.0,-100.00,East,98,1.0,4.0,91,0.00,,,0.05,0.000000,,2013-02-26 10:51:00,
2013-02-26 02:21:00,21.0,19.0,-100.00,SE,141,1.0,3.0,91,0.00,,,0.05,0.000000,,2013-02-26 11:21:00,
2013-02-26 02:31:00,21.0,19.0,-100.00,SE,141,1.0,3.0,91,0.00,,,0.05,0.000000,,2013-02-26 11:31:00,
2013-02-26 02:41:00,21.0,19.0,-100.00,SE,141,1.0,3.0,91,0.00,,,0.05,0.000000,,2013-02-26 11:41:00,
2013-02-26 02:52:00,21.0,19.0,-100.00,SE,141,1.0,3.0,91,0.00,,,0.05,0.000000,,2013-02-26 11:52:00,
2013-02-26 03:22:00,20.0,18.0,-100.00,North,9,1.0,3.0,90,0.00,,,0.05,0.000000,,2013-02-26 12:22:00,
2013-02-26 03:32:00,20.0,18.0,-100.00,North,9,1.0,3.0,90,0.00,,,0.05,0.000000,,2013-02-26 12:32:00,
2013-02-26 03:42:00,20.0,18.0,-100.00,North,9,1.0,3.0,90,0.00,,,0.05,0.000000,,2013-02-26 12:42:00,
2013-02-26 03:52:00,20.0,18.0,-100.00,North,9,1.0,3.0,90,0.00,,,0.05,0.000000,,2013-02-26 12:52:00,
2013-02-26 04:21:00,20.0,18.0,-100.00,East,83,1.0,2.0,91,0.00,,,0.05,0.000000,,2013-02-26 13:21:00,
2013-02-26 05:21:00,19.0,17.0,-100.00,East,89,1.0,2.0,90,-99.99,,,-99.99,0.000000,,2013-02-26 14:21:00,
2013-02-26 05:31:00,19.0,17.0,-100.00,East,89,1.0,2.0,90,-99.99,,,-99.99,0.000000,,2013-02-26 14:31:00,
2013-02-26 05:41:00,19.0,17.0,-100.00,East,89,1.0,2.0,90,-99.99,,,-99.99,0.000000,,2013-02-26 14:41:00,
2013-02-26 05:52:00,19.0,17.0,-100.00,East,89,1.0,2.0,90,-99.99,,,-99.99,0.000000,,2013-02-26 14:52:00,
2013-02-26 06:21:00,19.0,17.0,-100.00,NE,55,1.0,2.0,91,0.00,,,0.05,0.000000,,2013-02-26 15:21:00,
2013-02-26 06:32:00,19.0,17.0,-100.00,NE,55,1.0,2.0,91,0.00,,,0.05,0.000000,,2013-02-26 15:32:00,
2013-02-26 06:41:00,19.0,17.0,-100.00,NE,55,1.0,2.0,91,0.00,,,0.05,0.000000,,2013-02-26 15:41:00,
2013-02-26 06:51:00,19.0,17.0,-100.00,NE,55,1.0,2.0,91,0.00,,,0.05,0.000000,,2013-02-26 15:51:00,
2013-02-26 07:22:00,19.0,17.0,-100.00,ENE,72,1.0,2.0,91,0.00,,,0.05,0.000000,,2013-02-26 16:22:00,
2013-02-26 08:11:00,18.0,16.0,-100.00,East,91,0.0,3.0,91,-99.99,,,-99.99,,,2013-02-26 17:11:00,
2013-02-26 08:21:00,18.0,16.0,-100.00,East,91,0.0,3.0,91,-99.99,,,0.05,0.000000,,2013-02-26 17:21:00,
2013-02-26 09:21:00,19.0,17.0,-100.00,East,85,0.0,0.0,90,-99.99,,,-99.99,,,2013-02-26 18:21:00,
2013-02-26 09:32:00,19.0,17.0,-100.00,East,85,0.0,0.0,90,-99.99,,,-99.99,,,2013-02-26 18:32:00,
2013-02-26 10:22:00,23.0,20.0,-100.00,East,86,0.0,0.0,87,-99.99,,,0.05,6.000000,,2013-02-26 19:22:00,
2013-02-26 10:41:00,23.0,20.0,-100.00,East,86,0.0,0.0,87,-99.99,,,0.05,6.000000,,2013-02-26 19:41:00,
2013-02-26 10:51:00,23.0,20.0,-100.00,East,86,0.0,0.0,87,-99.99,,,0.05,6.000000,,2013-02-26 19:51:00,
2013-02-26 11:21:00,31.0,24.0,-100.00,NNW,343,1.0,4.0,74,-99.99,,,0.05,12.000000,,2013-02-26 20:21:00,
2013-02-26 11:31:00,31.0,24.0,-100.00,NNW,343,1.0,4.0,74,-99.99,,,0.05,12.000000,,2013-02-26 20:31:00,
2013-02-26 11:41:00,31.0,24.0,-100.00,NNW,343,1.0,4.0,74,-99.99,,,0.05,12.000000,,2013-02-26 20:41:00,
2013-02-26 11:51:00,31.0,24.0,-100.00,NNW,343,1.0,4.0,74,-99.99,,,0.05,12.000000,,2013-02-26 20:51:00,
2013-02-26 12:21:00,34.0,19.0,-100.00,NNW,343,3.0,5.0,54,0.01,,,0.06,20.000000,,2013-02-26 21:21:00,
2013-02-26 12:31:00,34.0,19.0,-100.00,NNW,343,3.0,5.0,54,0.01,,,0.06,20.000000,,2013-02-26 21:31:00,
2013-02-26 12:41:00,34.0,19.0,-100.00,NNW,343,3.0,5.0,54,0.01,,,0.06,20.000000,,2013-02-26 21:41:00,
2013-02-26 12:51:00,34.0,19.0,-100.00,NNW,343,3.0,5.0,54,0.01,,,0.06,20.000000,,2013-02-26 21:51:00,
2013-02-26 13:11:00,35.0,20.0,-100.00,NNW,336,3.0,6.0,55,-99.99,,,-99.99,,,2013-02-26 22:11:00,
2013-02-26 13:21:00,35.0,20.0,-100.00,NNW,336,3.0,7.0,55,0.03,,,0.09,15.000000,,2013-02-26 22:21:00,
2013-02-26 13:31:00,35.0,20.0,-100.00,NNW,336,3.0,7.0,55,0.03,,,0.09,15.000000,,2013-02-26 22:31:00,
2013-02-26 13:41:00,35.0,20.0,-100.00,NNW,336,3.0,7.0,55,0.03,,,0.09,15.000000,,2013-02-26 22:41:00,
2013-02-26 13:51:00,35.0,20.0,-100.00,NNW,336,3.0,7.0,55,0.03,,,0.09,15.000000,,2013-02-26 22:51:00,
2013-02-26 14:21:00,38.0,21.0,-100.00,West,279,2.0,7.0,50,0.05,,,0.12,26.000000,,2013-02-26 23:21:00,
2013-02-26 14:31:00,38.0,21.0,-100.00,West,279,2.0,7.0,50,0.05,,,0.12,26.000000,,2013-02-26 23:31:00,
2013-02-26 14:41:00,38.0,21.0,-100.00,West,279,2.0,7.0,50,0.05,,,0.12,26.000000,,2013-02-26 23:41:00,
2013-02-26 14:51:00,38.0,21.0,-100.00,West,279,2.0,7.0,50,0.05,,,0.12,26.000000,,2013-02-26 23:51:00,
2013-02-26 15:21:00,38.0,19.0,-100.00,NNW,342,2.0,5.0,45,0.06,,,0.16,88.000000,,2013-02-27 00:21:00,
2013-02-26 15:31:00,38.0,19.0,-100.00,NNW,342,2.0,5.0,45,0.06,,,0.16,88.000000,,2013-02-27 00:31:00,
2013-02-26 15:41:00,38.0,19.0,-100.00,NNW,342,2.0,5.0,45,0.06,,,0.16,88.000000,,2013-02-27 00:41:00,
2013-02-26 15:51:00,38.0,19.0,-100.00,NNW,342,2.0,5.0,45,0.06,,,0.16,88.000000,,2013-02-27 00:51:00,
2013-02-26 16:21:00,39.0,20.0,-100.00,NW,317,2.0,5.0,46,0.05,,,0.20,150.000000,,2013-02-27 01:21:00,
2013-02-26 16:31:00,39.0,20.0,-100.00,NW,317,2.0,5.0,46,0.05,,,0.20,150.000000,,2013-02-27 01:31:00,
2013-02-26 16:41:00,39.0,20.0,-100.00,NW,317,2.0,5.0,46,0.05,,,0.20,150.000000,,2013-02-27 01:41:00,
2013-02-26 16:51:00,39.0,20.0,-100.00,NW,317,2.0,5.0,46,0.05,,,0.20,150.000000,,2013-02-27 01:51:00,
2013-02-26 17:22:00,35.0,20.0,-100.00,NW,308,2.0,5.0,54,0.02,,,0.22,139.000000,,2013-02-27 02:22:00,
2013-02-26 17:32:00,35.0,20.0,-100.00,NW,308,2.0,5.0,54,0.02,,,0.22,139.000000,,2013-02-27 02:32:00,
2013-02-26 17:41:00,35.0,20.0,-100.00,NW,308,2.0,5.0,54,0.02,,,0.22,139.000000,,2013-02-27 02:41:00,
2013-02-26 17:52:00,35.0,20.0,-100.00,NW,308,2.0,5.0,54,0.02,,,0.22,139.000000,,2013-02-27 02:52:00,
2013-02-26 18:21:00,29.0,21.0,-100.00,NE,40,1.0,4.0,73,0.01,,,0.23,50.000000,,2013-02-27 03:21:00,
2013-02-26 18:32:00,29.0,21.0,-100.00,NE,40,1.0,4.0,73,0.01,,,0.23,50.000000,,2013-02-27 03:32:00,
2013-02-26 18:41:00,29.0,21.0,-100.00,NE,40,1.0,4.0,73,0.01,,,0.23,50.000000,,2013-02-27 03:41:00,
2013-02-26 18:51:00,29.0,21.0,-100.00,NE,40,1.0,4.0,73,0.01,,,0.23,50.000000,,2013-02-27 03:51:00,
2013-02-26 19:11:00,24.0,19.0,-100.00,ESE,123,1.0,3.0,81,0.00,,,0.23,2.000000,,2013-02-27 04:11:00,
2013-02-26 19:21:00,24.0,19.0,-100.00,ESE,123,1.0,3.0,81,0.00,,,0.23,2.000000,,2013-02-27 04:21:00,
2013-02-26 19:41:00,24.0,19.0,-100.00,ESE,123,1.0,3.0,81,0.00,,,0.23,2.000000,,2013-02-27 04:41:00,
2013-02-26 19:51:00,24.0,19.0,-100.00,ESE,123,1.0,3.0,81,0.00,,,0.23,2.000000,,2013-02-27 04:51:00,
2013-02-26 20:22:00,22.0,18.0,-100.00,South,174,1.0,3.0,85,0.00,,,0.23,0.000000,,2013-02-27 05:22:00,
2013-02-26 20:41:00,22.0,18.0,-100.00,South,174,1.0,3.0,85,0.00,,,0.23,0.000000,,2013-02-27 05:41:00,
2013-02-26 20:52:00,22.0,18.0,-100.00,South,174,1.0,3.0,85,0.00,,,0.23,0.000000,,2013-02-27 05:52:00,
2013-02-26 21:21:00,19.0,16.0,-100.00,SE,145,2.0,5.0,86,0.00,,,0.23,0.000000,,2013-02-27 06:21:00,
2013-02-26 22:21:00,22.0,18.0,-100.00,SSW,192,2.0,5.0,85,-99.99,,,0.23,0.000000,,2013-02-27 07:21:00,
2013-02-26 22:31:00,22.0,18.0,-100.00,SSW,192,2.0,5.0,85,-99.99,,,0.23,0.000000,,2013-02-27 07:31:00,
2013-02-26 22:41:00,22.0,18.0,-100.00,SSW,192,2.0,5.0,85,-99.99,,,0.23,0.000000,,2013-02-27 07:41:00,
2013-02-26 22:51:00,22.0,18.0,-100.00,SSW,192,2.0,5.0,85,-99.99,,,0.23,0.000000,,2013-02-27 07:51:00,
2013-02-26 23:21:00,18.0,14.0,-100.00,SE,134,2.0,5.0,85,0.00,,,0.23,0.000000,,2013-02-27 08:21:00,